createdAt,value
2023-03-06T00:02:00.707Z,100878.00
2023-03-06T00:04:33.687Z,100868.00
2023-03-06T00:07:06.781Z,100868.00
2023-03-06T00:09:39.878Z,100861.00
2023-03-06T00:12:13.798Z,100867.00
2023-03-06T00:14:46.882Z,100866.00
2023-03-06T00:17:19.918Z,100872.00
2023-03-06T00:19:52.762Z,100864.00
2023-03-06T00:22:25.871Z,100874.00
2023-03-06T00:24:59.098Z,100860.00
2023-03-06T00:27:31.932Z,100864.00
2023-03-06T00:30:05.291Z,100862.00
2023-03-06T00:32:38.562Z,100854.00
2023-03-06T00:35:12.873Z,100860.00
2023-03-06T00:37:46.102Z,100864.00
2023-03-06T00:40:21.617Z,100860.00
2023-03-06T00:42:54.546Z,100853.00
2023-03-06T00:45:27.635Z,100860.00
2023-03-06T00:48:03.111Z,100858.00
2023-03-06T00:50:37.210Z,100857.00
2023-03-06T00:53:10.337Z,100857.00
2023-03-06T00:55:43.246Z,100858.00
2023-03-06T00:58:16.167Z,100850.00
2023-03-06T01:00:49.656Z,100856.00
2023-03-06T01:03:22.582Z,100852.00
2023-03-06T01:05:55.575Z,100855.00
2023-03-06T01:08:28.412Z,100858.00
2023-03-06T01:11:01.528Z,100847.00
2023-03-06T01:13:34.282Z,100854.00
2023-03-06T01:16:15.613Z,100849.00
2023-03-06T01:18:49.094Z,100838.00
2023-03-06T01:21:21.966Z,100844.00
2023-03-06T01:23:54.983Z,100849.00
2023-03-06T01:26:27.801Z,100848.00
2023-03-06T01:29:01.180Z,100848.00
2023-03-06T01:31:34.470Z,100852.00
2023-03-06T01:34:07.519Z,100856.00
2023-03-06T01:36:40.518Z,100854.00
2023-03-06T01:39:14.101Z,100859.00
2023-03-06T01:41:47.104Z,100858.00
2023-03-06T01:44:19.845Z,100860.00
2023-03-06T01:46:52.875Z,100859.00
2023-03-06T01:49:27.926Z,100853.00
2023-03-06T01:52:05.863Z,100850.00
2023-03-06T01:54:43.883Z,100854.00
2023-03-06T01:57:24.718Z,100853.00
2023-03-06T02:00:05.411Z,100856.00
2023-03-06T02:02:38.528Z,100848.00
2023-03-06T02:05:12.675Z,100856.00
2023-03-06T02:07:50.762Z,100855.00
2023-03-06T02:10:24.221Z,100857.00
2023-03-06T02:12:57.268Z,100853.00
2023-03-06T02:15:32.136Z,100853.00
2023-03-06T02:18:05.807Z,100839.00
2023-03-06T02:20:52.498Z,100836.00
2023-03-06T02:23:56.291Z,100833.00
2023-03-06T02:26:30.118Z,100831.00
2023-03-06T02:29:04.270Z,100836.00
2023-03-06T02:31:38.465Z,100823.00
2023-03-06T02:34:17.548Z,100832.00
2023-03-06T02:36:55.462Z,100839.00
2023-03-06T02:39:30.260Z,100845.00
2023-03-06T02:42:03.388Z,100856.00
2023-03-06T02:44:38.295Z,100850.00
2023-03-06T02:47:11.022Z,100855.00
2023-03-06T02:49:44.050Z,100849.00
2023-03-06T02:52:16.990Z,100848.00
2023-03-06T02:54:50.165Z,100851.00
2023-03-06T02:57:23.101Z,100844.00
2023-03-06T02:59:56.232Z,100839.00
2023-03-06T03:02:33.893Z,100844.00
2023-03-06T03:05:10.850Z,100839.00
2023-03-06T03:07:44.389Z,100837.00
2023-03-06T03:10:17.993Z,100834.00
2023-03-06T03:12:50.789Z,100846.00
2023-03-06T03:15:23.580Z,100844.00
2023-03-06T03:17:56.394Z,100847.00
2023-03-06T03:20:29.370Z,100844.00
2023-03-06T03:23:02.164Z,100849.00
2023-03-06T03:25:35.199Z,100852.00
2023-03-06T03:28:08.300Z,100852.00
2023-03-06T03:30:42.287Z,100857.00
2023-03-06T03:33:15.350Z,100851.00
2023-03-06T03:35:48.654Z,100853.00
2023-03-06T03:38:21.567Z,100850.00
2023-03-06T03:40:54.920Z,100860.00
2023-03-06T03:43:27.931Z,100866.00
2023-03-06T03:46:00.757Z,100855.00
2023-03-06T03:48:33.603Z,100857.00
2023-03-06T03:51:13.946Z,100864.00
2023-03-06T03:53:47.443Z,100870.00
2023-03-06T03:56:20.465Z,100868.00
2023-03-06T03:58:53.477Z,100865.00
2023-03-06T04:01:26.485Z,100859.00
2023-03-06T04:03:59.578Z,100856.00
2023-03-06T04:06:32.579Z,100859.00
2023-03-06T04:09:06.557Z,100869.00
2023-03-06T04:11:39.530Z,100861.00
2023-03-06T04:14:12.450Z,100857.00
2023-03-06T04:16:45.403Z,100861.00
2023-03-06T04:19:18.450Z,100858.00
2023-03-06T04:21:51.310Z,100871.00
2023-03-06T04:24:24.253Z,100864.00
2023-03-06T04:26:57.075Z,100869.00
2023-03-06T04:29:29.848Z,100869.00
2023-03-06T04:32:03.628Z,100866.00
2023-03-06T04:34:37.030Z,100873.00
2023-03-06T04:37:10.284Z,100875.00
2023-03-06T04:39:43.781Z,100877.00
2023-03-06T04:42:21.291Z,100875.00
2023-03-06T04:44:58.771Z,100882.00
2023-03-06T04:47:31.864Z,100887.00
2023-03-06T04:50:04.832Z,100891.00
2023-03-06T04:52:37.889Z,100890.00
2023-03-06T04:55:15.748Z,100895.00
2023-03-06T04:57:49.890Z,100904.00
2023-03-06T05:00:27.831Z,100894.00
2023-03-06T05:03:04.890Z,100901.00
2023-03-06T05:05:37.737Z,100908.00
2023-03-06T05:08:11.799Z,100902.00
2023-03-06T05:10:44.985Z,100919.00
2023-03-06T05:13:18.055Z,100910.00
2023-03-06T05:15:51.343Z,100916.00
2023-03-06T05:18:24.474Z,100909.00
2023-03-06T05:20:58.642Z,100915.00
2023-03-06T05:23:32.166Z,100925.00
2023-03-06T05:26:06.468Z,100929.00
2023-03-06T05:28:39.438Z,100919.00
2023-03-06T05:31:16.986Z,100926.00
2023-03-06T05:33:50.462Z,100928.00
2023-03-06T05:36:23.920Z,100931.00
2023-03-06T05:38:57.208Z,100938.00
2023-03-06T05:41:30.265Z,100937.00
2023-03-06T05:44:03.978Z,100941.00
2023-03-06T05:46:36.834Z,100946.00
2023-03-06T05:49:09.913Z,100942.00
2023-03-06T05:51:45.271Z,100947.00
2023-03-06T05:54:18.373Z,100942.00
2023-03-06T05:56:51.398Z,100944.00
2023-03-06T05:59:24.281Z,100951.00
2023-03-06T06:01:59.050Z,100954.00
2023-03-06T06:04:33.440Z,100953.00
2023-03-06T06:07:07.943Z,100966.00
2023-03-06T06:09:40.909Z,100967.00
2023-03-06T06:12:14.252Z,100968.00
2023-03-06T06:14:47.082Z,100963.00
2023-03-06T06:17:20.284Z,100964.00
2023-03-06T06:19:53.308Z,100958.00
2023-03-06T06:22:26.210Z,100966.00
2023-03-06T06:24:59.268Z,100970.00
2023-03-06T06:27:35.535Z,100971.00
2023-03-06T06:30:09.814Z,100982.00
2023-03-06T06:32:43.327Z,100982.00
2023-03-06T06:35:16.869Z,100984.00
2023-03-06T06:37:50.030Z,100989.00
2023-03-06T06:40:24.668Z,100994.00
2023-03-06T06:42:57.707Z,100996.00
2023-03-06T06:45:31.270Z,100996.00
2023-03-06T06:48:04.884Z,100992.00
2023-03-06T06:50:37.963Z,100991.00
2023-03-06T06:53:13.259Z,100996.00
2023-03-06T06:55:46.290Z,101006.00
2023-03-06T06:58:19.971Z,101010.00
2023-03-06T07:00:53.028Z,101004.00
2023-03-06T07:03:26.053Z,101000.00
2023-03-06T07:06:02.239Z,101005.00
2023-03-06T07:08:36.314Z,101007.00
2023-03-06T07:11:22.288Z,101012.00
2023-03-06T07:13:59.600Z,101013.00
2023-03-06T07:16:32.495Z,101008.00
2023-03-06T07:19:05.960Z,101016.00
2023-03-06T07:21:43.288Z,101020.00
2023-03-06T07:24:16.274Z,101015.00
2023-03-06T07:26:52.913Z,101017.00
2023-03-06T07:29:25.893Z,101023.00
2023-03-06T07:31:58.796Z,101028.00
2023-03-06T07:34:31.853Z,101029.00
2023-03-06T07:37:04.752Z,101033.00
2023-03-06T07:39:38.125Z,101027.00
2023-03-06T07:42:11.147Z,101026.00
2023-03-06T07:44:44.474Z,101031.00
2023-03-06T07:47:17.874Z,101027.00
2023-03-06T07:49:50.883Z,101031.00
2023-03-06T07:52:28.049Z,101036.00
2023-03-06T07:55:01.030Z,101033.00
2023-03-06T07:57:34.062Z,101042.00
2023-03-06T08:00:07.813Z,101041.00
2023-03-06T08:02:40.981Z,101041.00
2023-03-06T08:05:16.407Z,101058.00
2023-03-06T08:07:49.748Z,101054.00
2023-03-06T08:10:22.957Z,101056.00
2023-03-06T08:12:55.776Z,101061.00
2023-03-06T08:15:28.867Z,101061.00
2023-03-06T08:18:01.941Z,101057.00
2023-03-06T08:20:34.754Z,101071.00
2023-03-06T08:23:07.490Z,101074.00
2023-03-06T08:25:40.186Z,101079.00
2023-03-06T08:28:13.274Z,101077.00
2023-03-06T08:30:46.092Z,101079.00
2023-03-06T08:33:19.090Z,101071.00
2023-03-06T08:35:51.991Z,101092.00
2023-03-06T08:38:25.114Z,101088.00
2023-03-06T08:40:58.222Z,101085.00
2023-03-06T08:43:31.429Z,101105.00
2023-03-06T08:46:04.455Z,101105.00
2023-03-06T08:48:40.093Z,101102.00
2023-03-06T08:51:14.378Z,101107.00
2023-03-06T08:53:47.630Z,101107.00
2023-03-06T08:56:22.302Z,101064.00
2023-03-06T08:58:55.541Z,101121.00
2023-03-06T09:01:30.910Z,101121.00
2023-03-06T09:04:06.895Z,101118.00
2023-03-06T09:06:41.995Z,101121.00
2023-03-06T09:09:19.323Z,101125.00
2023-03-06T09:11:53.130Z,101135.00
2023-03-06T09:14:30.084Z,101132.00
2023-03-06T09:17:03.276Z,101137.00
2023-03-06T09:19:36.121Z,101139.00
2023-03-06T09:22:08.938Z,101139.00
2023-03-06T09:24:41.928Z,101141.00
2023-03-06T09:27:14.897Z,101138.00
2023-03-06T09:29:47.694Z,101139.00
2023-03-06T09:32:20.709Z,101142.00
2023-03-06T09:34:53.964Z,101148.00
2023-03-06T09:37:27.396Z,101138.00
2023-03-06T09:40:00.442Z,101148.00
2023-03-06T09:42:36.122Z,101143.00
2023-03-06T09:45:09.929Z,101153.00
2023-03-06T09:47:54.146Z,101154.00
2023-03-06T09:50:44.461Z,101147.00
2023-03-06T09:53:38.599Z,101150.00
2023-03-06T09:56:16.293Z,101150.00
2023-03-06T09:58:54.630Z,101157.00
2023-03-06T10:01:32.632Z,101160.00
2023-03-06T10:04:22.231Z,101157.00
2023-03-06T10:06:57.348Z,101156.00
2023-03-06T10:09:32.382Z,101168.00
2023-03-06T10:12:10.223Z,101167.00
2023-03-06T10:14:50.390Z,101158.00
2023-03-06T10:17:25.685Z,101169.00
2023-03-06T10:19:59.211Z,101164.00
2023-03-06T10:22:37.368Z,101172.00
2023-03-06T10:25:24.178Z,101174.00
2023-03-06T10:28:11.056Z,101167.00
2023-03-06T10:31:08.856Z,101175.00
2023-03-06T10:33:52.924Z,101182.00
2023-03-06T10:36:28.454Z,101183.00
2023-03-06T10:39:06.951Z,101179.00
2023-03-06T10:41:40.270Z,101184.00
2023-03-06T10:44:18.009Z,101181.00
2023-03-06T10:46:57.721Z,101181.00
2023-03-06T10:49:46.483Z,101180.00
2023-03-06T10:52:27.635Z,101184.00
2023-03-06T10:55:03.021Z,101180.00
2023-03-06T10:57:36.924Z,101179.00
2023-03-06T11:00:11.565Z,101186.00
2023-03-06T11:02:44.922Z,101187.00
2023-03-06T11:05:25.092Z,101180.00
2023-03-06T11:08:00.049Z,101183.00
2023-03-06T11:10:36.065Z,101188.00
2023-03-06T11:13:11.184Z,101180.00
2023-03-06T11:15:45.267Z,101185.00
2023-03-06T11:18:20.725Z,101182.00
2023-03-06T11:20:55.229Z,101184.00
2023-03-06T11:23:33.159Z,101185.00
2023-03-06T11:26:23.131Z,101188.00
2023-03-06T11:29:08.158Z,101189.00
2023-03-06T11:31:43.473Z,101186.00
2023-03-06T11:34:27.104Z,101195.00
2023-03-06T11:37:14.506Z,101195.00
2023-03-06T11:39:53.141Z,101194.00
2023-03-06T11:42:34.506Z,101191.00
2023-03-06T11:45:15.627Z,101188.00
2023-03-06T11:47:53.766Z,101197.00
2023-03-06T11:50:59.162Z,101198.00
2023-03-06T11:53:43.007Z,101189.00
2023-03-06T11:56:36.158Z,101187.00
2023-03-06T11:59:11.357Z,101179.00
2023-03-06T12:01:52.532Z,101181.00
2023-03-06T12:04:30.549Z,101178.00
2023-03-06T12:07:22.412Z,101179.00
2023-03-06T12:10:18.946Z,101184.00
2023-03-06T12:13:17.031Z,101169.00
2023-03-06T12:16:04.325Z,101165.00
2023-03-06T12:18:51.076Z,101162.00
2023-03-06T12:21:44.566Z,101166.00
2023-03-06T12:24:39.017Z,101156.00
2023-03-06T12:27:19.910Z,101155.00
2023-03-06T12:30:00.255Z,101150.00
2023-03-06T12:32:42.392Z,101153.00
2023-03-06T12:35:47.631Z,101150.00
2023-03-06T12:38:37.784Z,101150.00
2023-03-06T12:41:38.695Z,101155.00
2023-03-06T12:44:33.301Z,101155.00
2023-03-06T12:47:11.217Z,101157.00
2023-03-06T12:49:49.976Z,101148.00
2023-03-06T12:52:30.258Z,101151.00
2023-03-06T12:55:03.089Z,101155.00
2023-03-06T12:57:36.152Z,101152.00
2023-03-06T13:00:10.657Z,101153.00
2023-03-06T13:03:01.721Z,101142.00
2023-03-06T13:05:48.300Z,101147.00
2023-03-06T13:08:32.273Z,101150.00
2023-03-06T13:11:32.798Z,101136.00
2023-03-06T13:14:07.271Z,101141.00
2023-03-06T13:16:40.206Z,101143.00
2023-03-06T13:19:18.282Z,101144.00
2023-03-06T13:21:59.574Z,101151.00
2023-03-06T13:24:34.639Z,101154.00
2023-03-06T13:27:09.195Z,101138.00
2023-03-06T13:29:44.270Z,101145.00
2023-03-06T13:32:21.424Z,101139.00
2023-03-06T13:34:54.176Z,101139.00
2023-03-06T13:37:29.507Z,101127.00
2023-03-06T13:40:04.767Z,101136.00
2023-03-06T13:42:39.316Z,101124.00
2023-03-06T13:45:20.737Z,101120.00
2023-03-06T13:48:37.503Z,101123.00
2023-03-06T13:50:47.484Z,101117.00
2023-03-06T13:53:53.043Z,101117.00
2023-03-06T13:56:50.527Z,101122.00
2023-03-06T13:59:28.556Z,101130.00
2023-03-06T14:02:06.951Z,101131.00
2023-03-06T14:04:50.702Z,101124.00
2023-03-06T14:07:31.357Z,101135.00
2023-03-06T14:10:19.430Z,101133.00
2023-03-06T14:12:57.242Z,101126.00
2023-03-06T14:15:46.977Z,101120.00
2023-03-06T14:18:25.600Z,101118.00
2023-03-06T14:21:06.478Z,101120.00
2023-03-06T14:23:41.588Z,101123.00
2023-03-06T14:26:25.981Z,101118.00
2023-03-06T14:29:00.533Z,101122.00
2023-03-06T14:31:42.197Z,101120.00
2023-03-06T14:34:24.294Z,101117.00
2023-03-06T14:36:59.248Z,101120.00
2023-03-06T14:39:43.091Z,101120.00
2023-03-06T14:42:26.998Z,101111.00
2023-03-06T14:45:11.365Z,101115.00
2023-03-06T14:47:44.538Z,101115.00
2023-03-06T14:50:31.345Z,101116.00
2023-03-06T14:53:19.419Z,101119.00
2023-03-06T14:55:57.887Z,101117.00
2023-03-06T14:58:44.823Z,101116.00
2023-03-06T15:01:18.647Z,101118.00
2023-03-06T15:03:56.510Z,101114.00
2023-03-06T15:06:35.500Z,101126.00
2023-03-06T15:09:13.433Z,101126.00
2023-03-06T15:12:09.407Z,101123.00
2023-03-06T15:14:43.989Z,101120.00
2023-03-06T15:17:24.787Z,101120.00
2023-03-06T15:19:59.560Z,101132.00
2023-03-06T15:22:43.224Z,101135.00
2023-03-06T15:25:40.084Z,101127.00
2023-03-06T15:28:31.429Z,101135.00
2023-03-06T15:31:21.472Z,101139.00
2023-03-06T15:34:15.241Z,101137.00
2023-03-06T15:36:50.480Z,101150.00
2023-03-06T15:39:40.630Z,101148.00
2023-03-06T15:42:21.722Z,101143.00
2023-03-06T15:45:01.209Z,101145.00
2023-03-06T15:47:34.551Z,101142.00
2023-03-06T15:50:07.677Z,101150.00
2023-03-06T15:52:45.886Z,101148.00
2023-03-06T15:55:19.684Z,101146.00
2023-03-06T15:57:54.929Z,101145.00
2023-03-06T16:00:36.224Z,101147.00
2023-03-06T16:03:09.401Z,101147.00
2023-03-06T16:05:42.518Z,101144.00
2023-03-06T16:08:16.605Z,101143.00
2023-03-06T16:10:51.771Z,101140.00
2023-03-06T16:13:31.849Z,101144.00
2023-03-06T16:16:05.008Z,101147.00
2023-03-06T16:18:37.959Z,101146.00
2023-03-06T16:21:11.268Z,101148.00
2023-03-06T16:23:44.298Z,101151.00
2023-03-06T16:26:31.017Z,101147.00
2023-03-06T16:29:04.559Z,101146.00
2023-03-06T16:31:37.879Z,101147.00
2023-03-06T16:34:10.864Z,101147.00
2023-03-06T16:36:44.208Z,101150.00
2023-03-06T16:39:25.387Z,101147.00
2023-03-06T16:41:58.905Z,101147.00
2023-03-06T16:44:31.847Z,101158.00
2023-03-06T16:47:05.729Z,101159.00
2023-03-06T16:49:38.658Z,101150.00
2023-03-06T16:52:12.701Z,101149.00
2023-03-06T16:54:46.020Z,101161.00
2023-03-06T16:57:19.524Z,101162.00
2023-03-06T16:59:52.492Z,101155.00
2023-03-06T17:02:25.513Z,101166.00
2023-03-06T17:04:58.933Z,101167.00
2023-03-06T17:07:31.900Z,101168.00
2023-03-06T17:10:05.039Z,101166.00
2023-03-06T17:12:38.082Z,101174.00
2023-03-06T17:15:12.092Z,101168.00
2023-03-06T17:17:45.079Z,101171.00
2023-03-06T17:20:18.507Z,101170.00
2023-03-06T17:22:51.642Z,101168.00
2023-03-06T17:25:24.521Z,101169.00
2023-03-06T17:27:57.638Z,101168.00
2023-03-06T17:30:30.438Z,101174.00
2023-03-06T17:33:03.542Z,101165.00
2023-03-06T17:35:37.932Z,101173.00
2023-03-06T17:38:10.864Z,101167.00
2023-03-06T17:40:44.079Z,101173.00
2023-03-06T17:43:17.112Z,101168.00
2023-03-06T17:45:50.163Z,101167.00
2023-03-06T17:48:23.377Z,101172.00
2023-03-06T17:50:59.990Z,101186.00
2023-03-06T17:53:33.772Z,101181.00
2023-03-06T17:56:08.797Z,101196.00
2023-03-06T17:58:41.741Z,101189.00
2023-03-06T18:01:16.858Z,101197.00
2023-03-06T18:03:52.025Z,101197.00
2023-03-06T18:06:24.804Z,101200.00
2023-03-06T18:09:01.985Z,101206.00
2023-03-06T18:11:35.524Z,101205.00
2023-03-06T18:14:08.796Z,101215.00
2023-03-06T18:16:41.887Z,101213.00
2023-03-06T18:19:14.870Z,101215.00
2023-03-06T18:21:48.953Z,101220.00
2023-03-06T18:24:21.984Z,101215.00
2023-03-06T18:26:55.024Z,101225.00
2023-03-06T18:29:27.962Z,101222.00
2023-03-06T18:32:01.282Z,101222.00
2023-03-06T18:34:34.336Z,101233.00
2023-03-06T18:37:07.639Z,101235.00
2023-03-06T18:39:42.828Z,101228.00
2023-03-06T18:42:16.082Z,101232.00
2023-03-06T18:44:52.403Z,101239.00
2023-03-06T18:47:25.425Z,101249.00
2023-03-06T18:49:58.429Z,101247.00
2023-03-06T18:52:31.451Z,101250.00
2023-03-06T18:55:04.656Z,101259.00
2023-03-06T18:57:40.117Z,101250.00
2023-03-06T19:00:14.228Z,101251.00
2023-03-06T19:02:51.594Z,101251.00
2023-03-06T19:05:24.729Z,101249.00
2023-03-06T19:07:57.653Z,101250.00
2023-03-06T19:10:35.978Z,101245.00
2023-03-06T19:13:09.532Z,101246.00
2023-03-06T19:15:47.496Z,101246.00
2023-03-06T19:18:21.345Z,101250.00
2023-03-06T19:20:54.807Z,101252.00
2023-03-06T19:23:27.979Z,101260.00
2023-03-06T19:26:08.153Z,101253.00
2023-03-06T19:28:42.803Z,101266.00
2023-03-06T19:31:19.376Z,101262.00
2023-03-06T19:33:52.916Z,101263.00
2023-03-06T19:36:28.092Z,101268.00
2023-03-06T19:39:02.131Z,101265.00
2023-03-06T19:41:35.614Z,101269.00
2023-03-06T19:44:08.734Z,101274.00
2023-03-06T19:46:42.535Z,101271.00
2023-03-06T19:49:18.436Z,101279.00
2023-03-06T19:51:51.399Z,101271.00
2023-03-06T19:54:27.767Z,101278.00
2023-03-06T19:57:00.772Z,101294.00
2023-03-06T19:59:34.189Z,101283.00
2023-03-06T20:02:07.223Z,101281.00
2023-03-06T20:04:42.435Z,101273.00
2023-03-06T20:07:15.229Z,101273.00
2023-03-06T20:09:49.600Z,101278.00
2023-03-06T20:12:22.500Z,101282.00
2023-03-06T20:14:55.441Z,101281.00
2023-03-06T20:17:28.518Z,101281.00
2023-03-06T20:20:01.545Z,101281.00
2023-03-06T20:22:34.388Z,101292.00
2023-03-06T20:25:07.681Z,101285.00
2023-03-06T20:27:40.882Z,101294.00
2023-03-06T20:30:14.999Z,101290.00
2023-03-06T20:32:48.188Z,101286.00
2023-03-06T20:35:21.442Z,101282.00
2023-03-06T20:37:54.670Z,101284.00
2023-03-06T20:40:30.400Z,101282.00
2023-03-06T20:43:03.561Z,101285.00
2023-03-06T20:45:40.324Z,101293.00
2023-03-06T20:48:13.661Z,101290.00
2023-03-06T20:50:46.747Z,101300.00
2023-03-06T20:53:27.321Z,101296.00
2023-03-06T20:56:00.643Z,101296.00
2023-03-06T20:58:34.604Z,101299.00
2023-03-06T21:01:07.730Z,101296.00
2023-03-06T21:03:42.935Z,101303.00
2023-03-06T21:06:16.156Z,101296.00
2023-03-06T21:08:49.164Z,101298.00
2023-03-06T21:11:22.746Z,101298.00
2023-03-06T21:13:55.983Z,101305.00
2023-03-06T21:16:30.977Z,101301.00
2023-03-06T21:19:04.395Z,101309.00
2023-03-06T21:21:38.486Z,101299.00
2023-03-06T21:24:14.692Z,101311.00
2023-03-06T21:26:47.804Z,101315.00
2023-03-06T21:29:20.757Z,101307.00
2023-03-06T21:31:53.753Z,101312.00
2023-03-06T21:34:26.923Z,101319.00
2023-03-06T21:37:00.105Z,101319.00
2023-03-06T21:39:33.236Z,101323.00
2023-03-06T21:42:06.461Z,101323.00
2023-03-06T21:44:39.421Z,101323.00
2023-03-06T21:47:16.891Z,101318.00
2023-03-06T21:49:51.311Z,101324.00
2023-03-06T21:52:26.445Z,101323.00
2023-03-06T21:54:58.430Z,101330.00
2023-03-06T21:57:31.610Z,101326.00
2023-03-06T22:00:06.548Z,101321.00
2023-03-06T22:02:40.599Z,101320.00
2023-03-06T22:05:13.831Z,101318.00
2023-03-06T22:07:47.242Z,101309.00
2023-03-06T22:10:20.224Z,101310.00
2023-03-06T22:12:53.272Z,101306.00
2023-03-06T22:15:26.520Z,101302.00
2023-03-06T22:18:04.215Z,101302.00
2023-03-06T22:20:37.189Z,101299.00
2023-03-06T22:23:10.276Z,101296.00
2023-03-06T22:25:43.264Z,101293.00
2023-03-06T22:28:20.570Z,101292.00
2023-03-06T22:30:53.534Z,101302.00
2023-03-06T22:33:28.566Z,101296.00
2023-03-06T22:36:09.230Z,101299.00
2023-03-06T22:38:43.717Z,101300.00
2023-03-06T22:41:22.072Z,101294.00
2023-03-06T22:43:55.074Z,101295.00
2023-03-06T22:46:28.518Z,101296.00
2023-03-06T22:49:02.360Z,101297.00
2023-03-06T22:51:35.719Z,101291.00
2023-03-06T22:54:09.167Z,101293.00
2023-03-06T22:56:42.099Z,101297.00
2023-03-06T22:59:15.331Z,101290.00
2023-03-06T23:01:48.769Z,101294.00
2023-03-06T23:04:21.926Z,101296.00
2023-03-06T23:06:54.999Z,101288.00
2023-03-06T23:09:27.988Z,101291.00
2023-03-06T23:12:00.889Z,101289.00
2023-03-06T23:14:34.831Z,101288.00
2023-03-06T23:17:08.066Z,101269.00
2023-03-06T23:19:41.037Z,101277.00
2023-03-06T23:22:14.284Z,101276.00
2023-03-06T23:24:47.356Z,101271.00
2023-03-06T23:27:21.195Z,101264.00
2023-03-06T23:29:56.475Z,101269.00
2023-03-06T23:32:29.460Z,101259.00
2023-03-06T23:35:02.334Z,101261.00
2023-03-06T23:37:35.479Z,101263.00
2023-03-06T23:40:10.428Z,101248.00
2023-03-06T23:42:43.342Z,101250.00
2023-03-06T23:45:16.526Z,101250.00
2023-03-06T23:47:49.463Z,101251.00
2023-03-06T23:50:22.769Z,101247.00
2023-03-06T23:52:59.482Z,101243.00
2023-03-06T23:55:32.567Z,101237.00
2023-03-06T23:58:05.545Z,101236.00
